Terminal Aerodrome Forecast
Issued by NWS Charleston, WV

Current Version | Previous Version | Graphics & Text | Print | Product List | Glossary On
Versions: 1 2 3 4 5 6 7 8 9 10 11 12 13 14 15 16 17 18 19 20 21 22 23 24 25 26
000
FTUS41 KRLX 280832 AAA
TAFBKW
TAF AMD
KBKW 280832Z 2809/2906 00000KT 6SM -SHRA BR SCT012 BKN035
     FM280930 00000KT 4SM BR BKN025
     FM281300 00000KT P6SM SCT035
     FM281700 00000KT P6SM BKN035
     FM281900 VRB03KT P6SM VCTS BKN025CB
     FM282300 VRB03KT P6SM SCT025=

USA.gov is the U.S. government's official web portal to all federal, state and local government web resources and services.